createdAt,value
2022-12-07T00:00:13.883Z,2.18
2022-12-07T00:05:36.676Z,2.11
2022-12-07T00:10:39.379Z,2.05
2022-12-07T00:15:42.154Z,1.98
2022-12-07T00:20:44.873Z,1.91
2022-12-07T00:25:49.097Z,1.90
2022-12-07T00:30:51.792Z,1.90
2022-12-07T00:35:59.420Z,1.92
2022-12-07T00:41:05.085Z,1.90
2022-12-07T00:46:08.258Z,1.84
2022-12-07T00:51:12.743Z,1.82
2022-12-07T00:56:18.787Z,1.79
2022-12-07T01:01:21.838Z,1.76
2022-12-07T01:06:25.953Z,1.77
2022-12-07T01:11:30.831Z,1.77
2022-12-07T01:16:34.004Z,1.75
2022-12-07T01:21:38.669Z,1.74
2022-12-07T01:26:42.176Z,1.75
2022-12-07T01:31:44.880Z,1.79
2022-12-07T01:36:47.603Z,1.84
2022-12-07T01:41:50.468Z,1.84
2022-12-07T01:46:54.716Z,1.79
2022-12-07T01:52:26.590Z,1.79
2022-12-07T01:57:31.743Z,1.85
2022-12-07T02:02:37.712Z,1.88
2022-12-07T02:07:41.352Z,1.86
2022-12-07T02:12:48.248Z,1.83
2022-12-07T02:17:55.862Z,1.83
2022-12-07T02:23:26.638Z,1.82
2022-12-07T02:28:38.315Z,1.80
2022-12-07T02:33:55.570Z,1.76
2022-12-07T02:39:13.018Z,1.74
2022-12-07T02:44:21.431Z,1.68
2022-12-07T02:49:27.045Z,1.66
2022-12-07T02:54:29.818Z,1.65
2022-12-07T02:59:54.533Z,1.64
2022-12-07T03:05:15.144Z,1.65
2022-12-07T03:10:36.069Z,1.63
2022-12-07T03:15:46.531Z,1.61
2022-12-07T03:20:52.526Z,1.57
2022-12-07T03:26:00.771Z,1.54
2022-12-07T03:31:10.889Z,1.54
2022-12-07T03:36:52.762Z,1.52
2022-12-07T03:41:57.806Z,1.47
2022-12-07T03:47:06.742Z,1.42
2022-12-07T03:52:28.379Z,1.44
2022-12-07T03:57:32.829Z,1.51
2022-12-07T04:02:36.493Z,1.51
2022-12-07T04:07:39.355Z,1.49
2022-12-07T04:12:42.160Z,1.44
2022-12-07T04:17:44.937Z,1.39
2022-12-07T04:22:48.072Z,1.34
2022-12-07T04:27:50.878Z,1.29
2022-12-07T04:32:53.675Z,1.25
2022-12-07T04:37:56.475Z,1.24
2022-12-07T04:42:59.161Z,1.25
2022-12-07T04:48:01.872Z,1.25
2022-12-07T04:53:04.778Z,1.22
2022-12-07T04:58:07.579Z,1.22
2022-12-07T05:03:10.314Z,1.22
2022-12-07T05:08:13.092Z,1.22
2022-12-07T05:13:15.971Z,1.22
2022-12-07T05:18:19.099Z,1.22
2022-12-07T05:23:21.807Z,1.19
2022-12-07T05:28:24.590Z,1.19
2022-12-07T05:33:27.313Z,1.22
2022-12-07T05:38:30.025Z,1.17
2022-12-07T05:43:34.835Z,1.17
2022-12-07T05:48:37.622Z,1.18
2022-12-07T05:53:40.336Z,1.17
2022-12-07T05:59:01.529Z,1.16
2022-12-07T06:04:04.899Z,1.18
2022-12-07T06:09:08.078Z,1.14
2022-12-07T06:14:10.803Z,1.11
2022-12-07T06:19:13.528Z,1.10
2022-12-07T06:24:18.058Z,1.13
2022-12-07T06:29:20.810Z,1.16
2022-12-07T06:34:25.087Z,1.17
2022-12-07T06:39:29.398Z,1.16
2022-12-07T06:44:32.243Z,1.15
2022-12-07T06:49:34.992Z,1.16
2022-12-07T06:54:38.102Z,1.17
2022-12-07T06:59:41.524Z,1.17
2022-12-07T07:04:44.580Z,1.19
2022-12-07T07:09:47.680Z,1.20
2022-12-07T07:14:50.548Z,1.22
2022-12-07T07:19:53.227Z,1.25
2022-12-07T07:24:56.148Z,1.26
2022-12-07T07:29:59.072Z,1.28
2022-12-07T07:35:02.494Z,1.27
2022-12-07T07:40:07.052Z,1.29
2022-12-07T07:45:11.203Z,1.30
2022-12-07T07:50:14.434Z,1.30
2022-12-07T07:55:17.383Z,1.32
2022-12-07T08:00:20.794Z,1.35
2022-12-07T08:05:23.885Z,1.39
2022-12-07T08:10:27.045Z,1.44
2022-12-07T08:15:32.301Z,1.49
2022-12-07T08:20:37.515Z,1.55
2022-12-07T08:25:40.860Z,1.60
2022-12-07T08:30:44.123Z,1.67
2022-12-07T08:35:46.896Z,1.79
2022-12-07T08:40:57.244Z,1.88
2022-12-07T08:46:25.121Z,1.92
2022-12-07T08:51:28.867Z,1.99
2022-12-07T08:56:31.832Z,2.01
2022-12-07T09:01:35.015Z,2.05
2022-12-07T09:06:38.995Z,2.12
2022-12-07T09:11:42.345Z,2.20
2022-12-07T09:16:45.103Z,2.32
2022-12-07T09:21:47.834Z,2.43
2022-12-07T09:26:50.537Z,2.51
2022-12-07T09:31:54.416Z,2.59
2022-12-07T09:36:57.414Z,2.67
2022-12-07T09:42:03.618Z,2.75
2022-12-07T09:47:06.747Z,2.77
2022-12-07T09:52:09.500Z,2.75
2022-12-07T09:57:16.200Z,2.73
2022-12-07T10:02:35.360Z,2.71
2022-12-07T10:07:38.131Z,2.71
2022-12-07T10:13:09.174Z,2.68
2022-12-07T10:18:27.863Z,2.71
2022-12-07T10:23:31.189Z,2.71
2022-12-07T10:28:41.930Z,2.72
2022-12-07T10:33:51.634Z,2.71
2022-12-07T10:39:02.404Z,2.69
2022-12-07T10:44:05.207Z,2.66
2022-12-07T10:49:13.707Z,2.70
2022-12-07T10:54:31.231Z,2.70
2022-12-07T11:00:11.426Z,2.71
2022-12-07T11:05:26.924Z,2.73
2022-12-07T11:10:40.772Z,2.70
2022-12-07T11:15:59.325Z,2.63
2022-12-07T11:21:07.799Z,2.59
2022-12-07T11:26:22.385Z,2.57
2022-12-07T11:31:59.809Z,2.56
2022-12-07T11:37:06.166Z,2.57
2022-12-07T11:42:17.822Z,2.57
2022-12-07T11:47:38.018Z,2.56
2022-12-07T11:52:46.321Z,2.44
2022-12-07T11:57:55.839Z,2.39
2022-12-07T12:03:13.654Z,2.37
2022-12-07T12:19:41.704Z,2.29
2022-12-07T12:24:48.631Z,2.29
2022-12-07T12:29:56.614Z,2.25
2022-12-07T12:35:24.149Z,2.31
2022-12-07T12:40:28.774Z,2.25
2022-12-07T12:45:35.391Z,2.24
2022-12-07T12:50:39.524Z,2.24
2022-12-07T12:55:42.473Z,2.22
2022-12-07T13:01:09.734Z,2.28
2022-12-07T13:06:18.362Z,2.26
2022-12-07T13:11:38.000Z,2.21
2022-12-07T13:16:42.408Z,2.19
2022-12-07T13:21:45.602Z,2.13
2022-12-07T13:26:49.068Z,2.09
2022-12-07T13:31:59.967Z,2.02
2022-12-07T13:37:16.866Z,2.00
2022-12-07T13:42:29.968Z,1.99
2022-12-07T13:47:55.000Z,2.00
2022-12-07T13:52:59.897Z,2.00
2022-12-07T13:58:02.666Z,1.98
2022-12-07T14:03:12.678Z,2.00
2022-12-07T14:08:15.773Z,1.97
2022-12-07T14:13:35.137Z,1.95
2022-12-07T14:18:41.498Z,1.92
2022-12-07T14:23:44.684Z,1.86
2022-12-07T14:28:48.487Z,1.84
2022-12-07T14:33:51.159Z,1.80
2022-12-07T14:38:57.153Z,1.79
2022-12-07T14:44:22.407Z,1.82
2022-12-07T14:49:39.066Z,1.81
2022-12-07T14:54:42.603Z,1.80
2022-12-07T14:59:45.562Z,1.80
2022-12-07T15:04:48.509Z,1.74
2022-12-07T15:09:51.426Z,1.68
2022-12-07T15:14:54.227Z,1.65
2022-12-07T15:19:57.135Z,1.63
2022-12-07T15:25:00.214Z,1.63
2022-12-07T15:30:04.114Z,1.63
2022-12-07T15:35:07.366Z,1.60
2022-12-07T15:40:11.484Z,1.59
2022-12-07T15:45:14.626Z,1.57
2022-12-07T15:50:18.338Z,1.54
2022-12-07T15:55:21.042Z,1.57
2022-12-07T16:00:23.858Z,1.59
2022-12-07T16:05:26.642Z,1.59
2022-12-07T16:10:29.449Z,1.53
2022-12-07T16:15:32.146Z,1.50
2022-12-07T16:20:35.121Z,1.50
2022-12-07T16:25:37.851Z,1.48
2022-12-07T16:30:40.606Z,1.45
2022-12-07T16:35:43.451Z,1.41
2022-12-07T16:40:48.270Z,1.42
2022-12-07T16:45:51.605Z,1.39
2022-12-07T16:50:54.937Z,1.34
2022-12-07T16:55:57.727Z,1.27
2022-12-07T17:01:00.887Z,1.23
2022-12-07T17:06:04.055Z,1.22
2022-12-07T17:11:16.268Z,1.22
2022-12-07T17:16:19.097Z,1.25
2022-12-07T17:21:23.516Z,1.22
2022-12-07T17:26:32.020Z,1.21
2022-12-07T17:31:38.380Z,1.21
2022-12-07T17:36:42.008Z,1.23
2022-12-07T17:42:03.593Z,1.26
2022-12-07T17:47:08.032Z,1.28
2022-12-07T17:52:29.469Z,1.30
2022-12-07T17:57:32.272Z,1.30
2022-12-07T18:02:35.085Z,1.30
2022-12-07T18:07:38.152Z,1.26
2022-12-07T18:12:40.941Z,1.25
2022-12-07T18:17:43.899Z,1.23
2022-12-07T18:22:46.796Z,1.26
2022-12-07T18:27:49.625Z,1.29
2022-12-07T18:32:52.886Z,1.28
2022-12-07T18:37:55.630Z,1.28
2022-12-07T18:42:58.395Z,1.27
2022-12-07T18:48:01.236Z,1.27
2022-12-07T18:53:05.802Z,1.27
2022-12-07T18:58:08.661Z,1.28
2022-12-07T19:03:11.369Z,1.29
2022-12-07T19:08:14.298Z,1.28
2022-12-07T19:13:17.178Z,1.29
2022-12-07T19:18:19.964Z,1.28
2022-12-07T19:23:25.222Z,1.29
2022-12-07T19:28:28.021Z,1.28
2022-12-07T19:33:30.731Z,1.29
2022-12-07T19:38:34.642Z,1.29
2022-12-07T19:43:37.459Z,1.27
2022-12-07T19:48:40.356Z,1.27
2022-12-07T19:53:43.154Z,1.24
2022-12-07T19:58:46.370Z,1.22
2022-12-07T20:03:49.166Z,1.20
2022-12-07T20:08:52.161Z,1.18
2022-12-07T20:13:55.286Z,1.16
2022-12-07T20:18:59.742Z,1.13
2022-12-07T20:24:04.879Z,1.12
2022-12-07T20:29:14.872Z,1.12
2022-12-07T20:34:21.170Z,1.12
2022-12-07T20:39:24.346Z,1.11
2022-12-07T20:44:27.326Z,1.10
2022-12-07T20:49:30.461Z,1.09
2022-12-07T20:54:33.536Z,1.08
2022-12-07T20:59:41.324Z,1.08
2022-12-07T21:04:44.694Z,1.07
2022-12-07T21:09:47.503Z,1.07
2022-12-07T21:14:50.177Z,1.08
2022-12-07T21:19:53.137Z,1.09
2022-12-07T21:24:55.970Z,1.06
2022-12-07T21:29:58.672Z,1.05
2022-12-07T21:35:02.126Z,1.04
2022-12-07T21:40:06.506Z,1.02
2022-12-07T21:45:10.245Z,0.99
2022-12-07T21:50:13.060Z,0.98
2022-12-07T21:55:16.125Z,0.96
2022-12-07T22:00:19.499Z,0.94
2022-12-07T22:05:22.277Z,0.90
2022-12-07T22:10:30.973Z,0.89
2022-12-07T22:15:33.742Z,0.87
2022-12-07T22:20:36.546Z,0.86
2022-12-07T22:25:40.735Z,0.84
2022-12-07T22:30:43.669Z,0.81
2022-12-07T22:35:52.861Z,0.77
2022-12-07T22:40:57.128Z,0.77
2022-12-07T22:46:00.874Z,0.76
2022-12-07T22:51:04.282Z,0.73
2022-12-07T22:56:07.293Z,0.70
2022-12-07T23:01:11.977Z,0.70
2022-12-07T23:06:22.468Z,0.68
2022-12-07T23:11:47.440Z,0.67
2022-12-07T23:16:50.248Z,0.64
2022-12-07T23:21:53.367Z,0.69
2022-12-07T23:26:56.380Z,0.68
2022-12-07T23:31:59.216Z,0.67
2022-12-07T23:37:02.232Z,0.63
2022-12-07T23:42:04.990Z,0.59
2022-12-07T23:47:07.732Z,0.56
2022-12-07T23:52:10.690Z,0.57
2022-12-07T23:57:13.376Z,0.55
